Anajatuba, Brazil
Current Conditions -  °F | °C
As of 4:00 AM on Friday 31 Oct 2014 (Local Time) from SBSL Reporting Station
Few Clouds Few Clouds  
Wind Chill: 26°   Ceiling: Unl
Heat Index: 27°   Visibility: 6mi
Dew Point: 20°   Wind: 15mph
Humidity: 69%   Direction: 70°ENE
Pressure: 29.8"   Gusts: 26mph
Location:  3.26°S, 44.62°W
Report Text: SBSL 310700Z 07013G23KT 050V120 9999 FEW017 26/20 Q1009
Loading
Personal Weather Stations






























Interactive Weather Map
Tropical Storm Tracking
New forecast layout! Learn more

10-Day Weather Forecast

Advertisements
Track Severe Weather on mobile